Search for airport 
image banner adimage banner adimage banner ad
image banner ad

20CL - Mysterious Valley

Located in Pope Valley, United States

ICAO - 20CL, IATA -

Data provided by Airmate  

General information

Coordinates: N38°44'58" W122°22'3"
Elevation is 1410 feet MSL.
Magnetic variation is 16° East
View others Airports in California

Operational data

Special qualification required
Current time UTC:
Current local time:
METAR: KSTS 221353Z 01003KT 10SM OVC021 15/12 A2992 RMK AO2 SLP126 T01500117
TAF: KSTS 221122Z 2212/2312 VRB04KT P6SM OVC015 FM221800 VRB05KT P6SM SCT010 OVC035 FM222000 21011KT P6SM SCT250 FM230400 VRB04KT P6SM FEW015 SCT020 FM230800 VRB03KT P6SM OVC020
View NOTAMs / SUP AIP / TFR affecting this airport [VIEW]
Communications frequencies: [VIEW]

Runways:

RWY identifierQFULength (ft)Width (ft)SurfaceLDA (ft)
14350030GRAVEL
32350030GRAVEL

Airport contact information

Address: Pope Valley United States

Satellite view of 20CL